sensor_id;sensor_type;location;lat;lon;timestamp;pressure;altitude;pressure_sealevel;temperature;humidity
4398;BME280;2213;49.720;7.296;2023-03-20T00:00:01;98371.47;;;8.92;100.00
4398;BME280;2213;49.720;7.296;2023-03-20T00:02:32;98369.50;;;8.94;100.00
4398;BME280;2213;49.720;7.296;2023-03-20T00:05:16;98369.50;;;8.94;100.00
4398;BME280;2213;49.720;7.296;2023-03-20T00:07:47;98371.28;;;8.93;100.00
4398;BME280;2213;49.720;7.296;2023-03-20T00:10:19;98379.09;;;8.93;100.00
4398;BME280;2213;49.720;7.296;2023-03-20T00:12:52;98373.72;;;8.95;100.00
4398;BME280;2213;49.720;7.296;2023-03-20T00:15:29;98371.13;;;8.95;100.00
4398;BME280;2213;49.720;7.296;2023-03-20T00:18:00;98371.94;;;8.95;100.00
4398;BME280;2213;49.720;7.296;2023-03-20T00:20:30;98383.34;;;8.94;100.00
4398;BME280;2213;49.720;7.296;2023-03-20T00:23:00;98379.91;;;8.94;100.00
4398;BME280;2213;49.720;7.296;2023-03-20T00:25:31;98381.56;;;8.95;100.00
4398;BME280;2213;49.720;7.296;2023-03-20T00:28:35;98381.56;;;8.95;100.00
4398;BME280;2213;49.720;7.296;2023-03-20T00:31:24;98377.94;;;8.96;100.00
4398;BME280;2213;49.720;7.296;2023-03-20T00:33:56;98378.75;;;8.96;100.00
4398;BME280;2213;49.720;7.296;2023-03-20T00:36:28;98387.25;;;8.98;100.00
4398;BME280;2213;49.720;7.296;2023-03-20T00:38:57;98389.84;;;8.98;100.00
4398;BME280;2213;49.720;7.296;2023-03-20T00:41:30;98389.66;;;9.00;100.00
4398;BME280;2213;49.720;7.296;2023-03-20T00:44:13;98389.66;;;9.00;100.00
4398;BME280;2213;49.720;7.296;2023-03-20T00:46:51;98389.66;;;9.00;100.00
4398;BME280;2213;49.720;7.296;2023-03-20T00:49:26;98386.91;;;9.01;100.00
4398;BME280;2213;49.720;7.296;2023-03-20T00:51:57;98383.28;;;9.02;100.00
4398;BME280;2213;49.720;7.296;2023-03-20T00:54:28;98380.53;;;9.04;100.00
4398;BME280;2213;49.720;7.296;2023-03-20T00:57:00;98385.75;;;9.04;100.00
4398;BME280;2213;49.720;7.296;2023-03-20T00:59:35;98392.59;;;9.05;100.00
4398;BME280;2213;49.720;7.296;2023-03-20T01:02:08;98389.00;;;9.06;100.00
4398;BME280;2213;49.720;7.296;2023-03-20T01:04:41;98393.22;;;9.07;100.00
4398;BME280;2213;49.720;7.296;2023-03-20T01:07:13;98390.63;;;9.07;100.00
4398;BME280;2213;49.720;7.296;2023-03-20T01:09:43;98392.25;;;9.08;100.00
4398;BME280;2213;49.720;7.296;2023-03-20T01:12:13;98394.88;;;9.08;100.00
4398;BME280;2213;49.720;7.296;2023-03-20T01:14:52;98397.47;;;9.08;100.00
4398;BME280;2213;49.720;7.296;2023-03-20T01:17:24;98393.91;;;9.09;100.00
4398;BME280;2213;49.720;7.296;2023-03-20T01:19:54;98406.28;;;9.07;100.00
4398;BME280;2213;49.720;7.296;2023-03-20T01:22:23;98407.91;;;9.08;100.00
4398;BME280;2213;49.720;7.296;2023-03-20T01:24:53;98406.75;;;9.10;100.00
4398;BME280;2213;49.720;7.296;2023-03-20T01:27:23;98416.38;;;9.10;100.00
4398;BME280;2213;49.720;7.296;2023-03-20T01:29:53;98418.81;;;9.12;100.00
4398;BME280;2213;49.720;7.296;2023-03-20T01:32:24;98424.84;;;9.12;100.00
4398;BME280;2213;49.720;7.296;2023-03-20T01:34:52;98428.44;;;9.11;100.00
4398;BME280;2213;49.720;7.296;2023-03-20T01:37:25;98424.84;;;9.12;100.00
4398;BME280;2213;49.720;7.296;2023-03-20T01:39:55;98425.69;;;9.13;100.00
4398;BME280;2213;49.720;7.296;2023-03-20T01:42:24;98420.63;;;9.11;100.00
4398;BME280;2213;49.720;7.296;2023-03-20T01:44:55;98425.69;;;9.13;100.00
4398;BME280;2213;49.720;7.296;2023-03-20T01:47:25;98431.69;;;9.13;100.00
4398;BME280;2213;49.720;7.296;2023-03-20T01:50:44;98428.09;;;9.14;100.00
4398;BME280;2213;49.720;7.296;2023-03-20T01:53:17;98432.50;;;9.14;100.00
4398;BME280;2213;49.720;7.296;2023-03-20T01:55:52;98428.09;;;9.14;100.00
4398;BME280;2213;49.720;7.296;2023-03-20T01:58:30;98420.47;;;9.13;100.00
4398;BME280;2213;49.720;7.296;2023-03-20T02:01:07;98427.47;;;9.12;100.00
4398;BME280;2213;49.720;7.296;2023-03-20T02:03:45;98428.44;;;9.11;100.00
4398;BME280;2213;49.720;7.296;2023-03-20T02:06:17;98435.28;;;9.12;100.00
4398;BME280;2213;49.720;7.296;2023-03-20T02:08:51;98438.53;;;9.14;100.00
4398;BME280;2213;49.720;7.296;2023-03-20T02:11:23;98442.13;;;9.13;100.00
4398;BME280;2213;49.720;7.296;2023-03-20T02:13:58;98441.34;;;9.13;100.00
4398;BME280;2213;49.720;7.296;2023-03-20T02:16:29;98435.28;;;9.12;100.00
4398;BME280;2213;49.720;7.296;2023-03-20T02:18:58;98435.28;;;9.12;100.00
4398;BME280;2213;49.720;7.296;2023-03-20T02:22:21;98430.91;;;9.13;100.00
4398;BME280;2213;49.720;7.296;2023-03-20T02:25:47;98435.28;;;9.12;100.00
4398;BME280;2213;49.720;7.296;2023-03-20T02:32:33;98417.03;;;9.12;100.00
4398;BME280;2213;49.720;7.296;2023-03-20T02:36:14;98413.25;;;9.15;100.00
4398;BME280;2213;49.720;7.296;2023-03-20T02:39:43;98405.59;;;9.13;100.00
4398;BME280;2213;49.720;7.296;2023-03-20T02:42:26;98400.38;;;9.13;100.00
4398;BME280;2213;49.720;7.296;2023-03-20T02:45:10;98395.97;;;9.14;100.00
4398;BME280;2213;49.720;7.296;2023-03-20T02:47:51;98394.19;;;9.14;100.00
4398;BME280;2213;49.720;7.296;2023-03-20T02:50:34;98395.97;;;9.14;100.00
4398;BME280;2213;49.720;7.296;2023-03-20T02:53:24;98401.38;;;9.12;100.00
4398;BME280;2213;49.720;7.296;2023-03-20T02:56:08;98396.31;;;9.10;100.00
4398;BME280;2213;49.720;7.296;2023-03-20T02:58:48;98398.94;;;9.10;100.00
4398;BME280;2213;49.720;7.296;2023-03-20T03:01:26;98399.91;;;9.09;100.00
4398;BME280;2213;49.720;7.296;2023-03-20T03:04:05;98406.75;;;9.10;100.00
4398;BME280;2213;49.720;7.296;2023-03-20T03:06:41;98405.94;;;9.10;100.00
4398;BME280;2213;49.720;7.296;2023-03-20T03:09:17;98411.00;;;9.12;100.00
4398;BME280;2213;49.720;7.296;2023-03-20T03:11:56;98414.25;;;9.14;100.00
4398;BME280;2213;49.720;7.296;2023-03-20T03:14:36;98405.44;;;9.15;100.00
4398;BME280;2213;49.720;7.296;2023-03-20T03:17:09;98415.72;;;9.16;100.00
4398;BME280;2213;49.720;7.296;2023-03-20T03:19:44;98419.31;;;9.15;100.00
4398;BME280;2213;49.720;7.296;2023-03-20T03:22:18;98416.50;;;9.17;100.00
4398;BME280;2213;49.720;7.296;2023-03-20T03:24:50;98424.53;;;9.15;100.00
4398;BME280;2213;49.720;7.296;2023-03-20T03:27:26;98429.56;;;9.17;100.00
4398;BME280;2213;49.720;7.296;2023-03-20T03:30:03;98419.94;;;9.17;100.00
4398;BME280;2213;49.720;7.296;2023-03-20T03:32:45;98420.75;;;9.18;100.00
4398;BME280;2213;49.720;7.296;2023-03-20T03:35:20;98414.56;;;9.19;100.00
4398;BME280;2213;49.720;7.296;2023-03-20T03:37:58;98409.97;;;9.21;100.00
4398;BME280;2213;49.720;7.296;2023-03-20T03:40:38;98409.97;;;9.21;100.00
4398;BME280;2213;49.720;7.296;2023-03-20T03:43:21;98410.78;;;9.21;100.00
4398;BME280;2213;49.720;7.296;2023-03-20T03:45:57;98412.44;;;9.22;100.00
4398;BME280;2213;49.720;7.296;2023-03-20T03:48:35;98409.81;;;9.22;100.00
4398;BME280;2213;49.720;7.296;2023-03-20T03:51:11;98420.25;;;9.22;100.00
4398;BME280;2213;49.720;7.296;2023-03-20T03:53:48;98413.41;;;9.21;100.00
4398;BME280;2213;49.720;7.296;2023-03-20T03:56:25;98420.59;;;9.19;100.00
4398;BME280;2213;49.720;7.296;2023-03-20T03:59:04;98425.00;;;9.19;100.00
4398;BME280;2213;49.720;7.296;2023-03-20T04:01:39;98427.59;;;9.19;100.00
4398;BME280;2213;49.720;7.296;2023-03-20T04:04:14;98423.34;;;9.18;100.00
4398;BME280;2213;49.720;7.296;2023-03-20T04:06:47;98425.81;;;9.19;100.00
4398;BME280;2213;49.720;7.296;2023-03-20T04:09:17;98427.75;;;9.17;100.00
4398;BME280;2213;49.720;7.296;2023-03-20T04:11:50;98436.59;;;9.16;100.00
4398;BME280;2213;49.720;7.296;2023-03-20T04:14:21;98436.41;;;9.18;100.00
4398;BME280;2213;49.720;7.296;2023-03-20T04:16:51;98437.84;;;9.20;100.00
4398;BME280;2213;49.720;7.296;2023-03-20T04:19:21;98440.47;;;9.20;100.00
4398;BME280;2213;49.720;7.296;2023-03-20T04:21:51;98437.84;;;9.20;100.00
4398;BME280;2213;49.720;7.296;2023-03-20T04:24:21;98431.84;;;9.20;100.00
4398;BME280;2213;49.720;7.296;2023-03-20T04:26:50;98429.88;;;9.22;100.00
4398;BME280;2213;49.720;7.296;2023-03-20T04:29:21;98425.47;;;9.22;100.00
4398;BME280;2213;49.720;7.296;2023-03-20T04:31:51;98428.09;;;9.22;100.00
4398;BME280;2213;49.720;7.296;2023-03-20T04:34:21;98433.44;;;9.21;100.00
4398;BME280;2213;49.720;7.296;2023-03-20T04:36:52;98437.69;;;9.22;100.00
4398;BME280;2213;49.720;7.296;2023-03-20T04:39:22;98439.50;;;9.21;100.00
4398;BME280;2213;49.720;7.296;2023-03-20T04:41:53;98435.91;;;9.22;100.00
4398;BME280;2213;49.720;7.296;2023-03-20T04:44:24;98434.75;;;9.25;100.00
4398;BME280;2213;49.720;7.296;2023-03-20T04:46:55;98425.13;;;9.25;100.00
4398;BME280;2213;49.720;7.296;2023-03-20T04:49:24;98424.16;;;9.26;100.00
4398;BME280;2213;49.720;7.296;2023-03-20T04:51:54;98435.38;;;9.27;100.00
4398;BME280;2213;49.720;7.296;2023-03-20T04:54:24;98439.63;;;9.28;100.00
4398;BME280;2213;49.720;7.296;2023-03-20T04:56:54;98438.81;;;9.27;100.00
4398;BME280;2213;49.720;7.296;2023-03-20T04:59:26;98445.66;;;9.28;100.00
4398;BME280;2213;49.720;7.296;2023-03-20T05:01:56;98450.88;;;9.28;100.00
4398;BME280;2213;49.720;7.296;2023-03-20T05:04:26;98462.13;;;9.29;100.00
4398;BME280;2213;49.720;7.296;2023-03-20T05:06:56;98468.19;;;9.29;100.00
4398;BME280;2213;49.720;7.296;2023-03-20T05:09:25;98460.50;;;9.28;100.00
4398;BME280;2213;49.720;7.296;2023-03-20T05:11:56;98463.94;;;9.28;100.00
4398;BME280;2213;49.720;7.296;2023-03-20T05:14:27;98463.94;;;9.28;100.00
4398;BME280;2213;49.720;7.296;2023-03-20T05:16:57;98466.53;;;9.28;100.00
4398;BME280;2213;49.720;7.296;2023-03-20T05:19:28;98468.19;;;9.29;100.00
4398;BME280;2213;49.720;7.296;2023-03-20T05:21:58;98475.00;;;9.30;100.00
4398;BME280;2213;49.720;7.296;2023-03-20T05:24:27;98477.47;;;9.32;100.00
4398;BME280;2213;49.720;7.296;2023-03-20T05:26:58;98479.25;;;9.31;100.00
4398;BME280;2213;49.720;7.296;2023-03-20T05:29:29;98478.28;;;9.32;100.00
4398;BME280;2213;49.720;7.296;2023-03-20T05:31:59;98477.47;;;9.32;100.00
4398;BME280;2213;49.720;7.296;2023-03-20T05:34:28;98472.25;;;9.32;100.00
4398;BME280;2213;49.720;7.296;2023-03-20T05:36:58;98469.47;;;9.33;100.00
4398;BME280;2213;49.720;7.296;2023-03-20T05:39:28;98459.03;;;9.33;100.00
4398;BME280;2213;49.720;7.296;2023-03-20T05:42:01;98473.69;;;9.34;100.00
4398;BME280;2213;49.720;7.296;2023-03-20T05:44:31;98472.72;;;9.35;100.00
4398;BME280;2213;49.720;7.296;2023-03-20T05:47:02;98479.56;;;9.36;100.00
4398;BME280;2213;49.720;7.296;2023-03-20T05:49:31;98481.19;;;9.37;100.00
4398;BME280;2213;49.720;7.296;2023-03-20T05:52:01;98474.97;;;9.38;100.00
4398;BME280;2213;49.720;7.296;2023-03-20T05:54:32;98482.81;;;9.38;100.00
4398;BME280;2213;49.720;7.296;2023-03-20T05:57:02;98475.66;;;9.40;100.00
4398;BME280;2213;49.720;7.296;2023-03-20T05:59:33;98475.66;;;9.40;100.00
4398;BME280;2213;49.720;7.296;2023-03-20T06:02:02;98472.03;;;9.41;100.00
4398;BME280;2213;49.720;7.296;2023-03-20T06:04:31;98463.22;;;9.42;100.00
4398;BME280;2213;49.720;7.296;2023-03-20T06:07:02;98472.69;;;9.43;100.00
4398;BME280;2213;49.720;7.296;2023-03-20T06:09:34;98478.72;;;9.44;100.00
4398;BME280;2213;49.720;7.296;2023-03-20T06:12:04;98476.13;;;9.44;100.00
4398;BME280;2213;49.720;7.296;2023-03-20T06:14:37;98492.56;;;9.44;100.00
4398;BME280;2213;49.720;7.296;2023-03-20T06:17:06;98479.53;;;9.44;100.00
4398;BME280;2213;49.720;7.296;2023-03-20T06:19:35;98470.91;;;9.44;100.00
4398;BME280;2213;49.720;7.296;2023-03-20T06:22:05;98476.13;;;9.44;100.00
4398;BME280;2213;49.720;7.296;2023-03-20T06:24:35;98480.34;;;9.45;100.00
4398;BME280;2213;49.720;7.296;2023-03-20T06:27:05;98476.91;;;9.44;100.00
4398;BME280;2213;49.720;7.296;2023-03-20T06:29:37;98478.53;;;9.45;100.00
4398;BME280;2213;49.720;7.296;2023-03-20T06:32:07;98478.53;;;9.45;100.00
4398;BME280;2213;49.720;7.296;2023-03-20T06:34:38;98472.34;;;9.46;100.00
4398;BME280;2213;49.720;7.296;2023-03-20T06:37:08;98467.94;;;9.47;100.00
4398;BME280;2213;49.720;7.296;2023-03-20T06:39:40;98460.94;;;9.47;100.00
4398;BME280;2213;49.720;7.296;2023-03-20T06:42:10;98472.97;;;9.48;100.00
4398;BME280;2213;49.720;7.296;2023-03-20T06:44:45;98478.06;;;9.50;100.00
4398;BME280;2213;49.720;7.296;2023-03-20T06:47:16;98478.88;;;9.50;100.00
4398;BME280;2213;49.720;7.296;2023-03-20T06:49:47;98468.25;;;9.52;100.00
4398;BME280;2213;49.720;7.296;2023-03-20T06:52:19;98467.06;;;9.54;100.00
4398;BME280;2213;49.720;7.296;2023-03-20T06:54:50;98472.97;;;9.56;100.00
4398;BME280;2213;49.720;7.296;2023-03-20T06:57:21;98478.81;;;9.58;100.00
4398;BME280;2213;49.720;7.296;2023-03-20T06:59:53;98482.72;;;9.63;100.00
4398;BME280;2213;49.720;7.296;2023-03-20T07:02:23;98478.94;;;9.65;100.00
4398;BME280;2213;49.720;7.296;2023-03-20T07:04:53;98476.53;;;9.64;100.00
4398;BME280;2213;49.720;7.296;2023-03-20T07:07:24;98479.13;;;9.64;100.00
4398;BME280;2213;49.720;7.296;2023-03-20T07:09:55;98486.28;;;9.70;100.00
4398;BME280;2213;49.720;7.296;2023-03-20T07:12:26;98478.75;;;9.75;100.00
4398;BME280;2213;49.720;7.296;2023-03-20T07:14:58;98481.84;;;9.78;100.00
4398;BME280;2213;49.720;7.296;2023-03-20T07:17:27;98479.22;;;9.78;100.00
4398;BME280;2213;49.720;7.296;2023-03-20T07:19:59;98489.84;;;9.77;100.00
4398;BME280;2213;49.720;7.296;2023-03-20T07:22:30;98481.84;;;9.78;100.00
4398;BME280;2213;49.720;7.296;2023-03-20T07:25:00;98483.28;;;9.81;100.00
4398;BME280;2213;49.720;7.296;2023-03-20T07:27:29;98488.31;;;9.82;100.00
4398;BME280;2213;49.720;7.296;2023-03-20T07:30:00;98480.34;;;9.84;100.00
4398;BME280;2213;49.720;7.296;2023-03-20T07:32:30;98487.34;;;9.83;100.00
4398;BME280;2213;49.720;7.296;2023-03-20T07:34:59;98482.13;;;9.83;100.00
4398;BME280;2213;49.720;7.296;2023-03-20T07:37:29;98476.09;;;9.83;100.00
4398;BME280;2213;49.720;7.296;2023-03-20T07:40:01;98483.09;;;9.82;100.00
4398;BME280;2213;49.720;7.296;2023-03-20T07:42:31;98468.25;;;9.83;100.00
4398;BME280;2213;49.720;7.296;2023-03-20T07:45:03;98476.91;;;9.83;100.00
4398;BME280;2213;49.720;7.296;2023-03-20T07:47:35;98489.09;;;9.91;100.00
4398;BME280;2213;49.720;7.296;2023-03-20T07:50:05;98492.03;;;9.96;100.00
4398;BME280;2213;49.720;7.296;2023-03-20T07:52:35;98493.63;;;9.97;100.00
4398;BME280;2213;49.720;7.296;2023-03-20T07:55:05;98508.00;;;10.01;100.00
4398;BME280;2213;49.720;7.296;2023-03-20T07:57:35;98505.69;;;10.06;100.00
4398;BME280;2213;49.720;7.296;2023-03-20T08:00:09;98500.13;;;10.09;100.00
4398;BME280;2213;49.720;7.296;2023-03-20T08:02:39;98509.56;;;10.10;100.00
4398;BME280;2213;49.720;7.296;2023-03-20T08:05:09;98506.47;;;10.15;100.00
4398;BME280;2213;49.720;7.296;2023-03-20T08:07:39;98504.81;;;10.13;100.00
4398;BME280;2213;49.720;7.296;2023-03-20T08:10:10;98517.09;;;10.13;100.00
4398;BME280;2213;49.720;7.296;2023-03-20T08:12:39;98507.41;;;10.13;100.00
4398;BME280;2213;49.720;7.296;2023-03-20T08:15:11;98510.88;;;10.14;100.00
4398;BME280;2213;49.720;7.296;2023-03-20T08:17:41;98511.34;;;10.18;100.00
4398;BME280;2213;49.720;7.296;2023-03-20T08:20:14;98507.41;;;10.22;100.00
4398;BME280;2213;49.720;7.296;2023-03-20T08:22:45;98506.25;;;10.24;100.00
4398;BME280;2213;49.720;7.296;2023-03-20T08:25:17;98515.09;;;10.23;100.00
4398;BME280;2213;49.720;7.296;2023-03-20T08:27:48;98511.16;;;10.27;100.00
4398;BME280;2213;49.720;7.296;2023-03-20T08:30:20;98512.75;;;10.28;100.00
4398;BME280;2213;49.720;7.296;2023-03-20T08:32:50;98514.38;;;10.29;100.00
4398;BME280;2213;49.720;7.296;2023-03-20T08:35:20;98517.81;;;10.30;100.00
4398;BME280;2213;49.720;7.296;2023-03-20T08:38:00;98528.19;;;10.38;100.00
4398;BME280;2213;49.720;7.296;2023-03-20T08:40:30;98517.41;;;10.41;100.00
4398;BME280;2213;49.720;7.296;2023-03-20T08:43:00;98529.22;;;10.37;100.00
4398;BME280;2213;49.720;7.296;2023-03-20T08:45:31;98527.06;;;10.40;100.00
4398;BME280;2213;49.720;7.296;2023-03-20T08:48:02;98530.66;;;10.39;100.00
4398;BME280;2213;49.720;7.296;2023-03-20T08:50:33;98540.75;;;10.42;100.00
4398;BME280;2213;49.720;7.296;2023-03-20T08:53:02;98536.66;;;10.48;100.00
4398;BME280;2213;49.720;7.296;2023-03-20T08:55:32;98540.59;;;10.44;100.00
4398;BME280;2213;49.720;7.296;2023-03-20T08:58:03;98542.50;;;10.50;100.00
4398;BME280;2213;49.720;7.296;2023-03-20T09:00:34;98543.34;;;10.50;100.00
4398;BME280;2213;49.720;7.296;2023-03-20T09:03:05;98528.28;;;10.52;100.00
4398;BME280;2213;49.720;7.296;2023-03-20T09:05:36;98533.34;;;10.54;100.00
4398;BME280;2213;49.720;7.296;2023-03-20T09:08:06;98531.53;;;10.54;100.00
4398;BME280;2213;49.720;7.296;2023-03-20T09:10:36;98528.03;;;10.62;100.00
4398;BME280;2213;49.720;7.296;2023-03-20T09:13:05;98528.03;;;10.62;100.00
4398;BME280;2213;49.720;7.296;2023-03-20T09:15:55;98528.69;;;10.64;100.00
4398;BME280;2213;49.720;7.296;2023-03-20T09:18:25;98531.94;;;10.66;100.00
4398;BME280;2213;49.720;7.296;2023-03-20T09:20:54;98537.47;;;10.71;100.00
4398;BME280;2213;49.720;7.296;2023-03-20T09:23:23;98540.19;;;10.78;100.00
4398;BME280;2213;49.720;7.296;2023-03-20T09:25:52;98541.88;;;10.71;100.00
4398;BME280;2213;49.720;7.296;2023-03-20T09:28:22;98541.81;;;10.79;100.00
4398;BME280;2213;49.720;7.296;2023-03-20T09:30:57;98550.28;;;10.81;100.00
4398;BME280;2213;49.720;7.296;2023-03-20T09:33:27;98553.19;;;10.86;100.00
4398;BME280;2213;49.720;7.296;2023-03-20T09:35:57;98555.16;;;10.84;100.00
4398;BME280;2213;49.720;7.296;2023-03-20T09:38:26;98549.00;;;10.77;100.00
4398;BME280;2213;49.720;7.296;2023-03-20T09:40:57;98556.22;;;10.75;100.00
4398;BME280;2213;49.720;7.296;2023-03-20T09:43:45;98557.72;;;10.69;100.00
4398;BME280;2213;49.720;7.296;2023-03-20T09:46:42;98559.72;;;10.67;100.00
4398;BME280;2213;49.720;7.296;2023-03-20T09:49:33;98555.31;;;10.68;100.00
4398;BME280;2213;49.720;7.296;2023-03-20T09:52:20;98550.22;;;10.66;100.00
4398;BME280;2213;49.720;7.296;2023-03-20T09:54:57;98553.66;;;10.67;100.00
4398;BME280;2213;49.720;7.296;2023-03-20T09:57:32;98558.28;;;10.65;100.00
4398;BME280;2213;49.720;7.296;2023-03-20T10:00:09;98562.84;;;10.63;100.00
4398;BME280;2213;49.720;7.296;2023-03-20T10:02:50;98564.44;;;10.72;100.00
4398;BME280;2213;49.720;7.296;2023-03-20T10:05:25;98562.91;;;10.77;100.00
4398;BME280;2213;49.720;7.296;2023-03-20T10:07:59;98558.13;;;10.81;100.00
4398;BME280;2213;49.720;7.296;2023-03-20T10:10:44;98556.81;;;10.85;100.00
4398;BME280;2213;49.720;7.296;2023-03-20T10:13:52;98554.81;;;10.87;100.00
4398;BME280;2213;49.720;7.296;2023-03-20T10:16:42;98554.81;;;10.87;100.00
4398;BME280;2213;49.720;7.296;2023-03-20T10:19:23;98551.84;;;10.90;100.00
4398;BME280;2213;49.720;7.296;2023-03-20T10:22:00;98559.00;;;10.96;100.00
4398;BME280;2213;49.720;7.296;2023-03-20T10:24:37;98556.19;;;10.97;100.00
4398;BME280;2213;49.720;7.296;2023-03-20T10:27:19;98547.19;;;11.00;100.00
4398;BME280;2213;49.720;7.296;2023-03-20T10:30:14;98553.41;;;10.99;100.00
4398;BME280;2213;49.720;7.296;2023-03-20T10:32:54;98545.81;;;11.04;100.00
4398;BME280;2213;49.720;7.296;2023-03-20T10:35:36;98545.13;;;11.10;100.00
4398;BME280;2213;49.720;7.296;2023-03-20T10:38:24;98547.66;;;11.18;100.00
4398;BME280;2213;49.720;7.296;2023-03-20T10:40:57;98539.44;;;11.21;100.00
4398;BME280;2213;49.720;7.296;2023-03-20T10:43:30;98546.78;;;11.26;100.00
4398;BME280;2213;49.720;7.296;2023-03-20T10:46:10;98533.31;;;11.29;100.00
4398;BME280;2213;49.720;7.296;2023-03-20T10:48:48;98538.09;;;11.25;100.00
4398;BME280;2213;49.720;7.296;2023-03-20T10:51:27;98528.38;;;11.34;100.00
4398;BME280;2213;49.720;7.296;2023-03-20T10:54:01;98537.06;;;11.34;100.00
4398;BME280;2213;49.720;7.296;2023-03-20T10:56:39;98525.84;;;11.40;100.00
4398;BME280;2213;49.720;7.296;2023-03-20T10:59:19;98534.97;;;11.44;100.00
4398;BME280;2213;49.720;7.296;2023-03-20T11:01:50;98538.41;;;11.45;100.00
4398;BME280;2213;49.720;7.296;2023-03-20T11:04:20;98537.84;;;11.49;100.00
4398;BME280;2213;49.720;7.296;2023-03-20T11:06:58;98537.84;;;11.49;100.00
4398;BME280;2213;49.720;7.296;2023-03-20T11:09:30;98537.03;;;11.49;100.00
4398;BME280;2213;49.720;7.296;2023-03-20T11:12:02;98543.72;;;11.37;100.00
4398;BME280;2213;49.720;7.296;2023-03-20T11:14:36;98540.94;;;11.38;100.00
4398;BME280;2213;49.720;7.296;2023-03-20T11:17:08;98541.19;;;11.43;100.00
4398;BME280;2213;49.720;7.296;2023-03-20T11:19:40;98539.09;;;11.39;100.00
4398;BME280;2213;49.720;7.296;2023-03-20T11:22:24;98535.13;;;11.43;100.00
4398;BME280;2213;49.720;7.296;2023-03-20T11:24:57;98527.56;;;11.48;100.00
4398;BME280;2213;49.720;7.296;2023-03-20T11:27:32;98526.03;;;11.53;100.00
4398;BME280;2213;49.720;7.296;2023-03-20T11:30:05;98521.44;;;11.55;100.00
4398;BME280;2213;49.720;7.296;2023-03-20T11:32:44;98522.41;;;11.54;100.00
4398;BME280;2213;49.720;7.296;2023-03-20T11:35:25;98514.38;;;11.56;100.00
4398;BME280;2213;49.720;7.296;2023-03-20T11:38:12;98507.78;;;11.60;100.00
4398;BME280;2213;49.720;7.296;2023-03-20T11:40:42;98509.16;;;11.71;100.00
4398;BME280;2213;49.720;7.296;2023-03-20T11:43:18;98508.66;;;11.67;93.91
4398;BME280;2213;49.720;7.296;2023-03-20T11:45:53;98505.59;;;11.63;88.07
4398;BME280;2213;49.720;7.296;2023-03-20T11:48:35;98503.78;;;11.64;85.94
4398;BME280;2213;49.720;7.296;2023-03-20T11:51:09;98498.03;;;11.69;82.71
4398;BME280;2213;49.720;7.296;2023-03-20T11:53:55;98502.81;;;11.65;80.82
4398;BME280;2213;49.720;7.296;2023-03-20T11:56:28;98495.69;;;11.59;81.95
4398;BME280;2213;49.720;7.296;2023-03-20T11:59:02;98501.53;;;11.61;82.67
4398;BME280;2213;49.720;7.296;2023-03-20T12:01:39;98501.28;;;11.71;84.50
4398;BME280;2213;49.720;7.296;2023-03-20T12:04:18;98494.66;;;11.60;86.83
4398;BME280;2213;49.720;7.296;2023-03-20T12:06:54;98500.00;;;11.67;91.64
4398;BME280;2213;49.720;7.296;2023-03-20T12:09:56;98502.00;;;11.65;94.43
4398;BME280;2213;49.720;7.296;2023-03-20T12:12:36;98495.69;;;11.74;97.34
4398;BME280;2213;49.720;7.296;2023-03-20T12:15:17;98491.69;;;11.78;98.21
4398;BME280;2213;49.720;7.296;2023-03-20T12:17:55;98490.50;;;11.80;99.12
4398;BME280;2213;49.720;7.296;2023-03-20T12:20:33;98495.41;;;11.69;98.98
4398;BME280;2213;49.720;7.296;2023-03-20T12:23:14;98496.50;;;11.74;100.00
4398;BME280;2213;49.720;7.296;2023-03-20T12:25:54;98491.69;;;11.78;100.00
4398;BME280;2213;49.720;7.296;2023-03-20T12:28:32;98486.47;;;11.78;100.00
4398;BME280;2213;49.720;7.296;2023-03-20T12:31:20;98481.75;;;11.88;100.00
4398;BME280;2213;49.720;7.296;2023-03-20T12:33:58;98479.41;;;11.78;100.00
4398;BME280;2213;49.720;7.296;2023-03-20T12:36:32;98478.31;;;11.87;100.00
4398;BME280;2213;49.720;7.296;2023-03-20T12:39:05;98482.94;;;11.85;100.00
4398;BME280;2213;49.720;7.296;2023-03-20T12:41:57;98490.25;;;11.90;100.00
4398;BME280;2213;49.720;7.296;2023-03-20T12:44:40;98488.16;;;11.85;86.39
4398;BME280;2213;49.720;7.296;2023-03-20T12:47:45;98473.00;;;11.81;74.47
4398;BME280;2213;49.720;7.296;2023-03-20T12:50:30;98472.38;;;11.79;71.37
4398;BME280;2213;49.720;7.296;2023-03-20T12:53:28;98469.09;;;11.77;68.21
4398;BME280;2213;49.720;7.296;2023-03-20T12:56:20;98470.13;;;11.76;69.38
4398;BME280;2213;49.720;7.296;2023-03-20T12:59:04;98466.25;;;11.72;67.90
4398;BME280;2213;49.720;7.296;2023-03-20T13:01:49;98467.88;;;11.73;66.18
4398;BME280;2213;49.720;7.296;2023-03-20T13:04:40;98464.94;;;11.68;63.97
4398;BME280;2213;49.720;7.296;2023-03-20T13:07:18;98454.47;;;11.68;64.02
4398;BME280;2213;49.720;7.296;2023-03-20T13:10:02;98464.34;;;11.66;64.09
4398;BME280;2213;49.720;7.296;2023-03-20T13:12:46;98469.66;;;11.57;63.01
4398;BME280;2213;49.720;7.296;2023-03-20T13:16:05;98450.41;;;11.65;64.32
4398;BME280;2213;49.720;7.296;2023-03-20T13:18:52;98456.19;;;11.60;65.38
4398;BME280;2213;49.720;7.296;2023-03-20T13:21:33;98451.69;;;11.69;66.34
4398;BME280;2213;49.720;7.296;2023-03-20T13:24:25;98448.91;;;11.71;65.27
4398;BME280;2213;49.720;7.296;2023-03-20T13:27:06;98443.28;;;11.74;67.09
4398;BME280;2213;49.720;7.296;2023-03-20T13:29:50;98451.84;;;11.68;66.67
4398;BME280;2213;49.720;7.296;2023-03-20T13:32:35;98447.91;;;11.72;70.23
4398;BME280;2213;49.720;7.296;2023-03-20T13:35:38;98450.88;;;11.69;73.66
4398;BME280;2213;49.720;7.296;2023-03-20T13:38:17;98451.84;;;11.68;72.41
4398;BME280;2213;49.720;7.296;2023-03-20T13:40:56;98444.38;;;11.65;68.28
4398;BME280;2213;49.720;7.296;2023-03-20T13:43:32;98446.00;;;11.66;67.40
4398;BME280;2213;49.720;7.296;2023-03-20T13:46:06;98448.34;;;11.60;67.38
4398;BME280;2213;49.720;7.296;2023-03-20T13:48:41;98444.91;;;11.60;67.47
4398;BME280;2213;49.720;7.296;2023-03-20T13:51:24;98439.13;;;11.65;67.44
4398;BME280;2213;49.720;7.296;2023-03-20T13:54:12;98440.75;;;11.66;68.50
4398;BME280;2213;49.720;7.296;2023-03-20T13:56:53;98435.88;;;11.63;70.38
4398;BME280;2213;49.720;7.296;2023-03-20T13:59:44;98432.25;;;11.63;71.46
4398;BME280;2213;49.720;7.296;2023-03-20T14:02:58;98425.31;;;11.71;73.29
4398;BME280;2213;49.720;7.296;2023-03-20T14:05:39;98435.25;;;11.75;73.80
4398;BME280;2213;49.720;7.296;2023-03-20T14:08:36;98427.47;;;11.67;73.93
4398;BME280;2213;49.720;7.296;2023-03-20T14:11:14;98427.38;;;11.60;76.27